Forecast Period: 

6:00 pm 3rd March 2021 to 6:00 am 4th  March 2021 

Synopsis:

A low level trough is approaching the islands

Forecast:

Partly cloudy and slightly hazy, becoming cloudy with a few showers

Weather Advisory/Warning:

None

Winds:

Generally from the ENE at 15 to 30 km/h(9-19 mph)

Sea Conditions:

Slight to moderate in open water; north-easterly swells (1.2 – 2.0 m)

Marine Advisory/Warning:

None

Upcoming Tides:
 High: 09:57 pm (3rd 10:42 am
 Low:

05:44 am

04:05 pm

Aviation WX

[Source: ADDS]
METAR
TVSA 041300Z 06011KT 030V090 2000 -RA SCT012 BKN028 23/23 Q1016 TEMPO SHRA =
TVSA 041100Z 0412/0512 09014KT 9999 SCT018 SCT036 TEMPO 0412/0420 09015G25KT SHRA BKN014 BKN032
TAF
TVSA 041100Z 0412/0512 09014KT 9999 SCT018 SCT036 TEMPO 0412/0420 09015G25KT SHRA BKN014 BKN032 =
SR / SS: 10:18 / 22:13 UTC (Sunrise Sunset 2021-03-04)